sensor_id;sensor_type;location;lat;lon;timestamp;temperature;humidity
25914;DHT22;13718;50.922;5.346;2022-07-29T00:02:17;17.10;99.90
25914;DHT22;13718;50.922;5.346;2022-07-29T00:04:43;17.00;99.90
25914;DHT22;13718;50.922;5.346;2022-07-29T00:07:09;16.90;99.90
25914;DHT22;13718;50.922;5.346;2022-07-29T00:09:34;16.90;99.90
25914;DHT22;13718;50.922;5.346;2022-07-29T00:12:01;16.90;99.90
25914;DHT22;13718;50.922;5.346;2022-07-29T00:14:27;16.90;99.90
25914;DHT22;13718;50.922;5.346;2022-07-29T00:16:53;16.90;99.90
25914;DHT22;13718;50.922;5.346;2022-07-29T00:19:19;16.80;99.90
25914;DHT22;13718;50.922;5.346;2022-07-29T00:21:48;16.80;99.90
25914;DHT22;13718;50.922;5.346;2022-07-29T00:24:13;16.90;99.90
25914;DHT22;13718;50.922;5.346;2022-07-29T00:26:42;16.80;99.90
25914;DHT22;13718;50.922;5.346;2022-07-29T00:29:07;16.70;99.90
25914;DHT22;13718;50.922;5.346;2022-07-29T00:31:33;16.60;99.90
25914;DHT22;13718;50.922;5.346;2022-07-29T00:33:59;16.50;99.90
25914;DHT22;13718;50.922;5.346;2022-07-29T00:36:25;16.40;99.90
25914;DHT22;13718;50.922;5.346;2022-07-29T00:38:51;16.40;99.90
25914;DHT22;13718;50.922;5.346;2022-07-29T00:41:26;16.30;99.90
25914;DHT22;13718;50.922;5.346;2022-07-29T00:43:51;16.30;99.90
25914;DHT22;13718;50.922;5.346;2022-07-29T00:46:17;16.40;99.90
25914;DHT22;13718;50.922;5.346;2022-07-29T00:48:42;16.30;99.90
25914;DHT22;13718;50.922;5.346;2022-07-29T00:51:08;16.20;99.90
25914;DHT22;13718;50.922;5.346;2022-07-29T00:53:35;16.10;99.90
25914;DHT22;13718;50.922;5.346;2022-07-29T00:56:01;16.20;99.90
25914;DHT22;13718;50.922;5.346;2022-07-29T00:58:27;16.10;99.90
25914;DHT22;13718;50.922;5.346;2022-07-29T01:00:53;16.20;99.90
25914;DHT22;13718;50.922;5.346;2022-07-29T01:03:18;16.20;99.90
25914;DHT22;13718;50.922;5.346;2022-07-29T01:05:45;16.20;99.90
25914;DHT22;13718;50.922;5.346;2022-07-29T01:08:12;16.30;99.90
25914;DHT22;13718;50.922;5.346;2022-07-29T01:10:39;16.30;99.90
25914;DHT22;13718;50.922;5.346;2022-07-29T01:13:06;16.40;99.90
25914;DHT22;13718;50.922;5.346;2022-07-29T01:15:34;16.60;99.90
25914;DHT22;13718;50.922;5.346;2022-07-29T01:18:17;16.60;99.90
25914;DHT22;13718;50.922;5.346;2022-07-29T01:31:33;16.00;99.90
25914;DHT22;13718;50.922;5.346;2022-07-29T01:34:04;16.00;99.90
25914;DHT22;13718;50.922;5.346;2022-07-29T01:36:40;16.30;99.90
25914;DHT22;13718;50.922;5.346;2022-07-29T01:39:10;16.50;99.90
25914;DHT22;13718;50.922;5.346;2022-07-29T01:41:40;16.70;99.90
25914;DHT22;13718;50.922;5.346;2022-07-29T01:44:17;16.80;99.90
25914;DHT22;13718;50.922;5.346;2022-07-29T01:46:49;16.80;99.90
25914;DHT22;13718;50.922;5.346;2022-07-29T01:49:17;16.70;99.90
25914;DHT22;13718;50.922;5.346;2022-07-29T01:52:01;16.60;99.90
25914;DHT22;13718;50.922;5.346;2022-07-29T01:54:38;16.50;99.90
25914;DHT22;13718;50.922;5.346;2022-07-29T01:57:06;16.30;99.90
25914;DHT22;13718;50.922;5.346;2022-07-29T01:59:34;16.10;99.90
25914;DHT22;13718;50.922;5.346;2022-07-29T02:02:01;16.00;99.90
25914;DHT22;13718;50.922;5.346;2022-07-29T02:04:28;16.10;99.90
25914;DHT22;13718;50.922;5.346;2022-07-29T02:06:58;16.10;99.90
25914;DHT22;13718;50.922;5.346;2022-07-29T02:09:26;15.90;99.90
25914;DHT22;13718;50.922;5.346;2022-07-29T02:11:53;15.80;99.90
25914;DHT22;13718;50.922;5.346;2022-07-29T02:14:22;15.80;99.90
25914;DHT22;13718;50.922;5.346;2022-07-29T02:16:51;15.70;99.90
25914;DHT22;13718;50.922;5.346;2022-07-29T02:19:19;15.60;99.90
25914;DHT22;13718;50.922;5.346;2022-07-29T02:21:46;15.80;99.90
25914;DHT22;13718;50.922;5.346;2022-07-29T02:24:13;15.80;99.90
25914;DHT22;13718;50.922;5.346;2022-07-29T02:26:41;15.90;99.90
25914;DHT22;13718;50.922;5.346;2022-07-29T02:29:09;16.10;99.90
25914;DHT22;13718;50.922;5.346;2022-07-29T02:31:35;16.10;99.90
25914;DHT22;13718;50.922;5.346;2022-07-29T02:34:07;16.30;99.90
25914;DHT22;13718;50.922;5.346;2022-07-29T02:36:34;16.20;99.90
25914;DHT22;13718;50.922;5.346;2022-07-29T02:39:01;16.30;99.90
25914;DHT22;13718;50.922;5.346;2022-07-29T02:41:43;16.30;99.90
25914;DHT22;13718;50.922;5.346;2022-07-29T02:44:12;16.30;99.90
25914;DHT22;13718;50.922;5.346;2022-07-29T02:46:48;16.40;99.90
25914;DHT22;13718;50.922;5.346;2022-07-29T02:49:26;16.30;99.90
25914;DHT22;13718;50.922;5.346;2022-07-29T02:51:58;16.30;99.90
25914;DHT22;13718;50.922;5.346;2022-07-29T02:54:46;16.40;99.90
25914;DHT22;13718;50.922;5.346;2022-07-29T02:59:52;16.50;99.90
25914;DHT22;13718;50.922;5.346;2022-07-29T03:02:22;16.40;99.90
25914;DHT22;13718;50.922;5.346;2022-07-29T03:04:48;16.30;99.90
25914;DHT22;13718;50.922;5.346;2022-07-29T03:07:15;16.30;99.90
25914;DHT22;13718;50.922;5.346;2022-07-29T03:09:44;16.30;99.90
25914;DHT22;13718;50.922;5.346;2022-07-29T03:12:11;16.30;99.90
25914;DHT22;13718;50.922;5.346;2022-07-29T03:14:37;16.30;99.90
25914;DHT22;13718;50.922;5.346;2022-07-29T03:17:03;16.30;99.90
25914;DHT22;13718;50.922;5.346;2022-07-29T03:19:29;16.40;99.90
25914;DHT22;13718;50.922;5.346;2022-07-29T03:21:57;16.50;99.90
25914;DHT22;13718;50.922;5.346;2022-07-29T03:24:35;16.50;99.90
25914;DHT22;13718;50.922;5.346;2022-07-29T03:27:02;16.50;99.90
25914;DHT22;13718;50.922;5.346;2022-07-29T03:29:29;16.60;99.90
25914;DHT22;13718;50.922;5.346;2022-07-29T03:31:54;16.60;99.90
25914;DHT22;13718;50.922;5.346;2022-07-29T03:34:21;16.80;99.90
25914;DHT22;13718;50.922;5.346;2022-07-29T03:36:47;16.70;99.90
25914;DHT22;13718;50.922;5.346;2022-07-29T03:39:15;16.70;99.90
25914;DHT22;13718;50.922;5.346;2022-07-29T03:41:42;16.70;99.90
25914;DHT22;13718;50.922;5.346;2022-07-29T03:44:09;16.80;99.90
25914;DHT22;13718;50.922;5.346;2022-07-29T03:46:37;16.90;99.90
25914;DHT22;13718;50.922;5.346;2022-07-29T03:49:05;16.80;99.90
25914;DHT22;13718;50.922;5.346;2022-07-29T03:51:33;16.70;99.90
25914;DHT22;13718;50.922;5.346;2022-07-29T03:54:01;16.60;99.90
25914;DHT22;13718;50.922;5.346;2022-07-29T03:56:28;16.50;99.90
25914;DHT22;13718;50.922;5.346;2022-07-29T03:58:54;16.50;99.90
25914;DHT22;13718;50.922;5.346;2022-07-29T04:01:21;16.50;99.90
25914;DHT22;13718;50.922;5.346;2022-07-29T04:03:47;16.50;99.90
25914;DHT22;13718;50.922;5.346;2022-07-29T04:06:13;16.50;99.90
25914;DHT22;13718;50.922;5.346;2022-07-29T04:08:39;16.50;99.90
25914;DHT22;13718;50.922;5.346;2022-07-29T04:11:05;16.60;99.90
25914;DHT22;13718;50.922;5.346;2022-07-29T04:13:32;16.60;99.90
25914;DHT22;13718;50.922;5.346;2022-07-29T04:15:58;16.40;99.90
25914;DHT22;13718;50.922;5.346;2022-07-29T04:18:24;16.30;99.90
25914;DHT22;13718;50.922;5.346;2022-07-29T04:20:49;16.30;99.90
25914;DHT22;13718;50.922;5.346;2022-07-29T04:23:15;16.30;99.90
25914;DHT22;13718;50.922;5.346;2022-07-29T04:25:42;16.40;99.90
25914;DHT22;13718;50.922;5.346;2022-07-29T04:28:09;16.40;99.90
25914;DHT22;13718;50.922;5.346;2022-07-29T04:30:35;16.50;99.90
25914;DHT22;13718;50.922;5.346;2022-07-29T04:33:03;16.50;99.90
25914;DHT22;13718;50.922;5.346;2022-07-29T04:35:30;16.50;99.90
25914;DHT22;13718;50.922;5.346;2022-07-29T04:37:55;16.60;99.90
25914;DHT22;13718;50.922;5.346;2022-07-29T04:40:21;16.50;99.90
25914;DHT22;13718;50.922;5.346;2022-07-29T04:42:47;16.50;99.90
25914;DHT22;13718;50.922;5.346;2022-07-29T04:45:13;16.50;99.90
25914;DHT22;13718;50.922;5.346;2022-07-29T04:47:38;16.60;99.90
25914;DHT22;13718;50.922;5.346;2022-07-29T04:50:04;16.60;99.90
25914;DHT22;13718;50.922;5.346;2022-07-29T04:52:32;16.70;99.90
25914;DHT22;13718;50.922;5.346;2022-07-29T04:54:58;16.70;99.90
25914;DHT22;13718;50.922;5.346;2022-07-29T04:57:23;16.70;99.90
25914;DHT22;13718;50.922;5.346;2022-07-29T04:59:49;16.70;99.90
25914;DHT22;13718;50.922;5.346;2022-07-29T05:02:14;16.70;99.90
25914;DHT22;13718;50.922;5.346;2022-07-29T05:04:40;16.70;99.90
25914;DHT22;13718;50.922;5.346;2022-07-29T05:07:05;16.70;99.90
25914;DHT22;13718;50.922;5.346;2022-07-29T05:09:31;16.70;99.90
25914;DHT22;13718;50.922;5.346;2022-07-29T05:11:57;16.70;99.90
25914;DHT22;13718;50.922;5.346;2022-07-29T05:14:23;16.70;99.90
25914;DHT22;13718;50.922;5.346;2022-07-29T05:16:49;16.70;99.90
25914;DHT22;13718;50.922;5.346;2022-07-29T05:19:16;16.70;99.90
25914;DHT22;13718;50.922;5.346;2022-07-29T05:21:42;17.00;99.90
25914;DHT22;13718;50.922;5.346;2022-07-29T05:24:09;17.20;99.90
25914;DHT22;13718;50.922;5.346;2022-07-29T05:26:35;17.30;99.90
25914;DHT22;13718;50.922;5.346;2022-07-29T05:29:01;17.40;99.90
25914;DHT22;13718;50.922;5.346;2022-07-29T05:31:26;17.40;99.90
25914;DHT22;13718;50.922;5.346;2022-07-29T05:33:52;17.50;99.90
25914;DHT22;13718;50.922;5.346;2022-07-29T05:36:18;18.20;99.90
25914;DHT22;13718;50.922;5.346;2022-07-29T05:38:43;18.70;99.90
25914;DHT22;13718;50.922;5.346;2022-07-29T05:41:09;18.70;99.90
25914;DHT22;13718;50.922;5.346;2022-07-29T05:43:34;18.50;99.90
25914;DHT22;13718;50.922;5.346;2022-07-29T05:46:00;18.90;99.90
25914;DHT22;13718;50.922;5.346;2022-07-29T05:48:26;19.20;99.90
25914;DHT22;13718;50.922;5.346;2022-07-29T05:50:51;19.00;99.90
25914;DHT22;13718;50.922;5.346;2022-07-29T05:53:17;18.60;99.90
25914;DHT22;13718;50.922;5.346;2022-07-29T05:55:43;18.40;99.90
25914;DHT22;13718;50.922;5.346;2022-07-29T05:58:08;18.50;99.90
25914;DHT22;13718;50.922;5.346;2022-07-29T06:00:34;18.50;99.90
25914;DHT22;13718;50.922;5.346;2022-07-29T06:02:59;18.60;99.90
25914;DHT22;13718;50.922;5.346;2022-07-29T06:05:25;18.60;99.90
25914;DHT22;13718;50.922;5.346;2022-07-29T06:07:51;18.70;99.90
25914;DHT22;13718;50.922;5.346;2022-07-29T06:10:16;19.50;99.90
25914;DHT22;13718;50.922;5.346;2022-07-29T06:12:42;20.00;99.90
25914;DHT22;13718;50.922;5.346;2022-07-29T06:15:08;20.20;99.90
25914;DHT22;13718;50.922;5.346;2022-07-29T06:17:34;20.90;99.90
25914;DHT22;13718;50.922;5.346;2022-07-29T06:19:59;21.10;99.90
25914;DHT22;13718;50.922;5.346;2022-07-29T06:22:25;21.00;99.90
25914;DHT22;13718;50.922;5.346;2022-07-29T06:24:51;21.00;99.90
25914;DHT22;13718;50.922;5.346;2022-07-29T06:27:16;21.70;99.90
25914;DHT22;13718;50.922;5.346;2022-07-29T06:29:42;22.20;99.90
25914;DHT22;13718;50.922;5.346;2022-07-29T06:32:07;22.80;99.90
25914;DHT22;13718;50.922;5.346;2022-07-29T06:34:35;23.70;99.90
25914;DHT22;13718;50.922;5.346;2022-07-29T06:37:06;24.30;99.90
25914;DHT22;13718;50.922;5.346;2022-07-29T06:39:36;24.00;99.90
25914;DHT22;13718;50.922;5.346;2022-07-29T06:42:05;23.60;99.90
25914;DHT22;13718;50.922;5.346;2022-07-29T06:44:31;23.60;99.90
25914;DHT22;13718;50.922;5.346;2022-07-29T06:46:59;24.80;99.90
25914;DHT22;13718;50.922;5.346;2022-07-29T06:49:25;26.20;99.90
25914;DHT22;13718;50.922;5.346;2022-07-29T06:51:52;27.40;99.90
25914;DHT22;13718;50.922;5.346;2022-07-29T06:54:17;28.20;99.60
25914;DHT22;13718;50.922;5.346;2022-07-29T06:56:43;28.60;96.90
25914;DHT22;13718;50.922;5.346;2022-07-29T06:59:10;28.90;94.60
25914;DHT22;13718;50.922;5.346;2022-07-29T07:01:37;28.80;93.50
25914;DHT22;13718;50.922;5.346;2022-07-29T07:04:03;29.20;93.10
25914;DHT22;13718;50.922;5.346;2022-07-29T07:06:28;29.70;90.70
25914;DHT22;13718;50.922;5.346;2022-07-29T07:08:54;30.10;88.40
25914;DHT22;13718;50.922;5.346;2022-07-29T07:11:20;30.30;86.50
25914;DHT22;13718;50.922;5.346;2022-07-29T07:13:45;29.60;87.70
25914;DHT22;13718;50.922;5.346;2022-07-29T07:16:11;29.60;85.50
25914;DHT22;13718;50.922;5.346;2022-07-29T07:18:37;30.30;84.40
25914;DHT22;13718;50.922;5.346;2022-07-29T07:21:02;30.90;83.30
25914;DHT22;13718;50.922;5.346;2022-07-29T07:23:31;31.10;82.20
25914;DHT22;13718;50.922;5.346;2022-07-29T07:25:56;30.40;81.20
25914;DHT22;13718;50.922;5.346;2022-07-29T07:28:22;30.00;82.60
25914;DHT22;13718;50.922;5.346;2022-07-29T07:30:48;30.40;81.00
25914;DHT22;13718;50.922;5.346;2022-07-29T07:33:13;31.00;78.60
25914;DHT22;13718;50.922;5.346;2022-07-29T07:35:40;31.60;78.40
25914;DHT22;13718;50.922;5.346;2022-07-29T07:38:06;32.30;75.60
25914;DHT22;13718;50.922;5.346;2022-07-29T07:40:31;33.00;74.70
25914;DHT22;13718;50.922;5.346;2022-07-29T07:42:57;33.50;71.30
25914;DHT22;13718;50.922;5.346;2022-07-29T07:45:23;34.00;69.40
25914;DHT22;13718;50.922;5.346;2022-07-29T07:47:49;34.30;68.00
25914;DHT22;13718;50.922;5.346;2022-07-29T07:50:14;34.50;65.60
25914;DHT22;13718;50.922;5.346;2022-07-29T07:52:51;34.80;64.10
25914;DHT22;13718;50.922;5.346;2022-07-29T07:55:18;35.10;62.50
25914;DHT22;13718;50.922;5.346;2022-07-29T07:57:45;35.40;62.80
25914;DHT22;13718;50.922;5.346;2022-07-29T08:00:12;35.50;61.20
25914;DHT22;13718;50.922;5.346;2022-07-29T08:02:39;35.50;60.50
25914;DHT22;13718;50.922;5.346;2022-07-29T08:05:05;35.60;59.60
25914;DHT22;13718;50.922;5.346;2022-07-29T08:07:32;36.10;58.90
25914;DHT22;13718;50.922;5.346;2022-07-29T08:09:57;36.30;58.40
25914;DHT22;13718;50.922;5.346;2022-07-29T08:12:23;36.30;57.60
25914;DHT22;13718;50.922;5.346;2022-07-29T08:14:48;36.50;56.70
25914;DHT22;13718;50.922;5.346;2022-07-29T08:17:14;36.60;56.40
25914;DHT22;13718;50.922;5.346;2022-07-29T08:19:39;36.90;56.70
25914;DHT22;13718;50.922;5.346;2022-07-29T08:22:05;36.90;55.70
25914;DHT22;13718;50.922;5.346;2022-07-29T08:24:31;37.10;55.00
25914;DHT22;13718;50.922;5.346;2022-07-29T08:27:12;37.40;54.70
25914;DHT22;13718;50.922;5.346;2022-07-29T08:29:38;37.70;54.00
25914;DHT22;13718;50.922;5.346;2022-07-29T08:32:05;37.90;53.20
25914;DHT22;13718;50.922;5.346;2022-07-29T08:34:31;38.00;52.50
25914;DHT22;13718;50.922;5.346;2022-07-29T08:36:57;37.90;52.10
25914;DHT22;13718;50.922;5.346;2022-07-29T08:39:23;37.80;52.60
25914;DHT22;13718;50.922;5.346;2022-07-29T08:41:49;37.70;52.80
25914;DHT22;13718;50.922;5.346;2022-07-29T08:44:19;37.70;53.10
25914;DHT22;13718;50.922;5.346;2022-07-29T08:46:48;38.00;52.70
25914;DHT22;13718;50.922;5.346;2022-07-29T08:49:13;38.20;51.90
25914;DHT22;13718;50.922;5.346;2022-07-29T08:51:40;38.40;51.50
25914;DHT22;13718;50.922;5.346;2022-07-29T08:54:06;38.30;50.70
25914;DHT22;13718;50.922;5.346;2022-07-29T08:56:34;38.40;50.70
25914;DHT22;13718;50.922;5.346;2022-07-29T08:59:03;38.60;50.90
25914;DHT22;13718;50.922;5.346;2022-07-29T09:01:29;39.10;51.10
25914;DHT22;13718;50.922;5.346;2022-07-29T09:03:56;39.50;50.20
25914;DHT22;13718;50.922;5.346;2022-07-29T09:06:23;39.30;49.00
25914;DHT22;13718;50.922;5.346;2022-07-29T09:08:53;39.00;49.10
25914;DHT22;13718;50.922;5.346;2022-07-29T09:11:20;38.80;49.70
25914;DHT22;13718;50.922;5.346;2022-07-29T09:13:45;38.60;50.40
25914;DHT22;13718;50.922;5.346;2022-07-29T09:16:11;38.40;50.50
25914;DHT22;13718;50.922;5.346;2022-07-29T09:18:42;38.40;50.40
25914;DHT22;13718;50.922;5.346;2022-07-29T09:21:10;38.60;50.00
25914;DHT22;13718;50.922;5.346;2022-07-29T09:24:13;38.50;50.10
25914;DHT22;13718;50.922;5.346;2022-07-29T09:26:43;38.40;50.50
25914;DHT22;13718;50.922;5.346;2022-07-29T09:31:44;38.40;50.90
25914;DHT22;13718;50.922;5.346;2022-07-29T09:34:11;38.50;50.70
25914;DHT22;13718;50.922;5.346;2022-07-29T09:36:42;38.80;50.30
25914;DHT22;13718;50.922;5.346;2022-07-29T09:39:09;38.40;49.80
25914;DHT22;13718;50.922;5.346;2022-07-29T09:41:45;38.00;49.80
25914;DHT22;13718;50.922;5.346;2022-07-29T09:44:11;36.60;52.30
25914;DHT22;13718;50.922;5.346;2022-07-29T09:46:37;34.80;55.50
25914;DHT22;13718;50.922;5.346;2022-07-29T09:49:07;33.30;58.00
25914;DHT22;13718;50.922;5.346;2022-07-29T09:51:34;31.90;60.50
25914;DHT22;13718;50.922;5.346;2022-07-29T09:54:00;30.80;62.80
25914;DHT22;13718;50.922;5.346;2022-07-29T09:56:39;30.10;66.60
25914;DHT22;13718;50.922;5.346;2022-07-29T09:59:06;29.40;68.30
25914;DHT22;13718;50.922;5.346;2022-07-29T10:01:32;28.90;69.20
25914;DHT22;13718;50.922;5.346;2022-07-29T10:03:58;28.70;70.70
25914;DHT22;13718;50.922;5.346;2022-07-29T10:06:23;28.70;69.30
25914;DHT22;13718;50.922;5.346;2022-07-29T10:08:49;28.40;69.30
25914;DHT22;13718;50.922;5.346;2022-07-29T10:11:18;28.40;70.50
25914;DHT22;13718;50.922;5.346;2022-07-29T10:13:47;28.10;71.10
25914;DHT22;13718;50.922;5.346;2022-07-29T10:16:15;28.00;71.40
25914;DHT22;13718;50.922;5.346;2022-07-29T10:18:42;28.00;71.50
25914;DHT22;13718;50.922;5.346;2022-07-29T10:21:07;27.90;70.80
25914;DHT22;13718;50.922;5.346;2022-07-29T10:23:34;27.80;70.00
25914;DHT22;13718;50.922;5.346;2022-07-29T10:26:00;27.60;70.20
25914;DHT22;13718;50.922;5.346;2022-07-29T10:28:25;27.30;71.00
25914;DHT22;13718;50.922;5.346;2022-07-29T10:30:52;27.20;71.80
25914;DHT22;13718;50.922;5.346;2022-07-29T10:33:51;27.20;71.50
25914;DHT22;13718;50.922;5.346;2022-07-29T10:44:32;26.90;71.40
25914;DHT22;13718;50.922;5.346;2022-07-29T10:46:58;26.90;72.30
25914;DHT22;13718;50.922;5.346;2022-07-29T10:49:27;26.90;72.20
25914;DHT22;13718;50.922;5.346;2022-07-29T10:52:00;26.90;72.00
25914;DHT22;13718;50.922;5.346;2022-07-29T10:57:29;27.10;70.80
25914;DHT22;13718;50.922;5.346;2022-07-29T11:07:27;27.00;70.70
25914;DHT22;13718;50.922;5.346;2022-07-29T11:15:15;26.80;70.40
25914;DHT22;13718;50.922;5.346;2022-07-29T11:20:44;26.90;70.20
25914;DHT22;13718;50.922;5.346;2022-07-29T11:29:04;27.00;68.70
25914;DHT22;13718;50.922;5.346;2022-07-29T11:39:39;26.90;67.70
25914;DHT22;13718;50.922;5.346;2022-07-29T11:44:58;27.20;68.70
25914;DHT22;13718;50.922;5.346;2022-07-29T11:47:27;27.30;67.90
25914;DHT22;13718;50.922;5.346;2022-07-29T11:49:54;27.40;67.20
25914;DHT22;13718;50.922;5.346;2022-07-29T11:52:20;27.50;67.10
25914;DHT22;13718;50.922;5.346;2022-07-29T11:54:51;27.70;67.70
25914;DHT22;13718;50.922;5.346;2022-07-29T11:57:18;27.80;68.40
25914;DHT22;13718;50.922;5.346;2022-07-29T11:59:46;27.80;68.40
25914;DHT22;13718;50.922;5.346;2022-07-29T12:02:13;28.00;68.50
25914;DHT22;13718;50.922;5.346;2022-07-29T12:07:26;28.00;68.00
25914;DHT22;13718;50.922;5.346;2022-07-29T12:09:53;27.90;67.20
25914;DHT22;13718;50.922;5.346;2022-07-29T12:12:19;27.70;67.60
25914;DHT22;13718;50.922;5.346;2022-07-29T12:14:45;27.80;67.10
25914;DHT22;13718;50.922;5.346;2022-07-29T12:19:58;27.50;71.30
25914;DHT22;13718;50.922;5.346;2022-07-29T12:22:34;27.20;71.80
25914;DHT22;13718;50.922;5.346;2022-07-29T12:25:11;27.10;72.10
25914;DHT22;13718;50.922;5.346;2022-07-29T12:27:37;26.90;72.30
25914;DHT22;13718;50.922;5.346;2022-07-29T12:30:09;26.70;72.20
25914;DHT22;13718;50.922;5.346;2022-07-29T12:32:40;26.70;72.90
25914;DHT22;13718;50.922;5.346;2022-07-29T12:35:09;26.80;73.10
25914;DHT22;13718;50.922;5.346;2022-07-29T12:37:36;26.90;71.90
25914;DHT22;13718;50.922;5.346;2022-07-29T12:40:07;27.10;70.20
25914;DHT22;13718;50.922;5.346;2022-07-29T12:42:34;27.20;68.70
25914;DHT22;13718;50.922;5.346;2022-07-29T12:45:00;27.30;68.80
25914;DHT22;13718;50.922;5.346;2022-07-29T12:47:27;27.50;69.70
25914;DHT22;13718;50.922;5.346;2022-07-29T12:50:11;27.70;69.40
25914;DHT22;13718;50.922;5.346;2022-07-29T12:52:37;27.80;69.60
25914;DHT22;13718;50.922;5.346;2022-07-29T12:55:03;27.80;68.70
25914;DHT22;13718;50.922;5.346;2022-07-29T12:57:29;27.60;68.90
25914;DHT22;13718;50.922;5.346;2022-07-29T13:00:07;27.70;69.10
25914;DHT22;13718;50.922;5.346;2022-07-29T13:02:35;27.70;68.90
25914;DHT22;13718;50.922;5.346;2022-07-29T13:05:01;27.80;68.60
25914;DHT22;13718;50.922;5.346;2022-07-29T13:07:29;27.80;68.10
25914;DHT22;13718;50.922;5.346;2022-07-29T13:10:16;27.90;68.10
25914;DHT22;13718;50.922;5.346;2022-07-29T13:13:10;28.00;67.30
25914;DHT22;13718;50.922;5.346;2022-07-29T13:15:41;28.10;66.80
25914;DHT22;13718;50.922;5.346;2022-07-29T13:18:30;28.20;65.80
25914;DHT22;13718;50.922;5.346;2022-07-29T13:20:56;28.30;66.00
25914;DHT22;13718;50.922;5.346;2022-07-29T13:23:22;28.40;66.30
25914;DHT22;13718;50.922;5.346;2022-07-29T13:25:48;28.10;66.00
25914;DHT22;13718;50.922;5.346;2022-07-29T13:28:14;28.10;65.80
25914;DHT22;13718;50.922;5.346;2022-07-29T13:30:40;28.10;65.20
25914;DHT22;13718;50.922;5.346;2022-07-29T13:33:06;28.00;65.80
25914;DHT22;13718;50.922;5.346;2022-07-29T13:35:32;28.20;66.10
25914;DHT22;13718;50.922;5.346;2022-07-29T13:37:58;28.20;66.00
25914;DHT22;13718;50.922;5.346;2022-07-29T13:40:23;28.20;66.30
25914;DHT22;13718;50.922;5.346;2022-07-29T13:42:49;28.30;66.00
25914;DHT22;13718;50.922;5.346;2022-07-29T13:45:14;28.30;65.50
25914;DHT22;13718;50.922;5.346;2022-07-29T13:47:40;28.30;65.20
25914;DHT22;13718;50.922;5.346;2022-07-29T13:50:07;28.20;64.10
25914;DHT22;13718;50.922;5.346;2022-07-29T13:52:35;28.10;63.80
25914;DHT22;13718;50.922;5.346;2022-07-29T13:55:02;28.00;64.10
25914;DHT22;13718;50.922;5.346;2022-07-29T13:57:27;28.00;63.00
25914;DHT22;13718;50.922;5.346;2022-07-29T13:59:53;28.00;63.30
25914;DHT22;13718;50.922;5.346;2022-07-29T14:02:19;27.90;64.60
25914;DHT22;13718;50.922;5.346;2022-07-29T14:04:44;27.90;62.80
25914;DHT22;13718;50.922;5.346;2022-07-29T14:07:10;27.90;63.00
25914;DHT22;13718;50.922;5.346;2022-07-29T14:09:36;27.70;62.60
25914;DHT22;13718;50.922;5.346;2022-07-29T14:12:02;27.50;62.70
25914;DHT22;13718;50.922;5.346;2022-07-29T14:14:28;27.40;62.30
25914;DHT22;13718;50.922;5.346;2022-07-29T14:16:54;27.40;62.90
25914;DHT22;13718;50.922;5.346;2022-07-29T14:19:20;27.40;63.20
25914;DHT22;13718;50.922;5.346;2022-07-29T14:21:45;27.40;62.90
25914;DHT22;13718;50.922;5.346;2022-07-29T14:24:11;27.50;62.80
25914;DHT22;13718;50.922;5.346;2022-07-29T14:26:37;27.60;62.30
25914;DHT22;13718;50.922;5.346;2022-07-29T14:29:02;27.60;62.10
25914;DHT22;13718;50.922;5.346;2022-07-29T14:31:28;27.70;62.80
25914;DHT22;13718;50.922;5.346;2022-07-29T14:33:53;27.70;63.30
25914;DHT22;13718;50.922;5.346;2022-07-29T14:36:19;27.70;64.10
25914;DHT22;13718;50.922;5.346;2022-07-29T14:38:44;27.70;63.00
25914;DHT22;13718;50.922;5.346;2022-07-29T14:41:10;27.70;63.30
25914;DHT22;13718;50.922;5.346;2022-07-29T14:43:36;27.60;63.10
25914;DHT22;13718;50.922;5.346;2022-07-29T14:46:02;27.30;62.90
25914;DHT22;13718;50.922;5.346;2022-07-29T14:48:27;27.40;63.80
25914;DHT22;13718;50.922;5.346;2022-07-29T14:50:53;27.50;63.90
25914;DHT22;13718;50.922;5.346;2022-07-29T14:53:20;27.50;63.60
25914;DHT22;13718;50.922;5.346;2022-07-29T14:55:45;27.50;62.40
25914;DHT22;13718;50.922;5.346;2022-07-29T14:58:11;27.60;62.10
25914;DHT22;13718;50.922;5.346;2022-07-29T15:00:36;27.70;62.40
25914;DHT22;13718;50.922;5.346;2022-07-29T15:03:03;27.70;62.00
25914;DHT22;13718;50.922;5.346;2022-07-29T15:05:32;27.80;61.60
25914;DHT22;13718;50.922;5.346;2022-07-29T15:07:59;27.70;61.30
25914;DHT22;13718;50.922;5.346;2022-07-29T15:10:24;27.50;61.20
25914;DHT22;13718;50.922;5.346;2022-07-29T15:12:52;27.60;61.60
25914;DHT22;13718;50.922;5.346;2022-07-29T15:15:18;27.60;61.60
25914;DHT22;13718;50.922;5.346;2022-07-29T15:17:43;27.60;61.60
25914;DHT22;13718;50.922;5.346;2022-07-29T15:20:09;27.60;61.00
25914;DHT22;13718;50.922;5.346;2022-07-29T15:22:36;27.70;61.50
25914;DHT22;13718;50.922;5.346;2022-07-29T15:25:04;27.80;59.90
25914;DHT22;13718;50.922;5.346;2022-07-29T15:27:29;28.00;60.00
25914;DHT22;13718;50.922;5.346;2022-07-29T15:29:55;28.20;59.30
25914;DHT22;13718;50.922;5.346;2022-07-29T15:32:21;28.40;59.00
25914;DHT22;13718;50.922;5.346;2022-07-29T15:34:46;28.30;58.50
25914;DHT22;13718;50.922;5.346;2022-07-29T15:37:12;28.40;58.60
25914;DHT22;13718;50.922;5.346;2022-07-29T15:39:38;28.40;58.80
25914;DHT22;13718;50.922;5.346;2022-07-29T15:42:03;28.50;58.80
25914;DHT22;13718;50.922;5.346;2022-07-29T15:44:29;28.50;58.50
25914;DHT22;13718;50.922;5.346;2022-07-29T15:46:55;28.40;59.00
25914;DHT22;13718;50.922;5.346;2022-07-29T15:49:37;28.40;59.80
25914;DHT22;13718;50.922;5.346;2022-07-29T15:52:05;28.30;58.70
25914;DHT22;13718;50.922;5.346;2022-07-29T15:54:32;28.20;58.30
25914;DHT22;13718;50.922;5.346;2022-07-29T15:56:58;28.20;58.60
25914;DHT22;13718;50.922;5.346;2022-07-29T15:59:24;28.30;59.00
25914;DHT22;13718;50.922;5.346;2022-07-29T16:01:50;28.30;59.00
25914;DHT22;13718;50.922;5.346;2022-07-29T16:04:16;28.20;59.40
25914;DHT22;13718;50.922;5.346;2022-07-29T16:06:43;28.20;59.30
25914;DHT22;13718;50.922;5.346;2022-07-29T16:09:09;28.10;59.00
25914;DHT22;13718;50.922;5.346;2022-07-29T16:11:35;28.10;58.80
25914;DHT22;13718;50.922;5.346;2022-07-29T16:14:01;28.00;58.50
25914;DHT22;13718;50.922;5.346;2022-07-29T16:16:26;28.00;58.70
25914;DHT22;13718;50.922;5.346;2022-07-29T16:18:52;27.90;58.70
25914;DHT22;13718;50.922;5.346;2022-07-29T16:21:18;28.00;58.80
25914;DHT22;13718;50.922;5.346;2022-07-29T16:23:43;27.90;59.00
25914;DHT22;13718;50.922;5.346;2022-07-29T16:26:09;27.80;58.50
25914;DHT22;13718;50.922;5.346;2022-07-29T16:28:35;27.60;58.90
25914;DHT22;13718;50.922;5.346;2022-07-29T16:31:01;27.50;59.30
25914;DHT22;13718;50.922;5.346;2022-07-29T16:33:26;27.40;60.20
25914;DHT22;13718;50.922;5.346;2022-07-29T16:35:52;27.10;59.80
25914;DHT22;13718;50.922;5.346;2022-07-29T16:38:18;27.10;59.70